Time;durP1;ratioP1;P1;durP2;ratioP2;P2;SDS_P1;SDS_P2;PMS_P1;PMS_P2;Temp;Humidity;BMP_temperature;BMP_pressure;BME280_temperature;BME280_humidity;BME280_pressure;Samples;Min_cycle;Max_cycle;Signal;HPM_P1;HPM_P2
2022/12/16 00:02:55;;;;;;;0.72;0.50;;;5.70;99.90;;;;;;1932369;72;22197;-86
2022/12/16 00:05:50;;;;;;;0.82;0.50;;;5.60;99.90;;;;;;1903515;75;21135;-86
2022/12/16 00:08:42;;;;;;;1.07;0.60;;;5.60;99.90;;;;;;1905372;75;21086;-86
2022/12/16 00:11:33;;;;;;;0.45;0.40;;;5.60;99.90;;;;;;1897165;75;21542;-86
2022/12/16 00:14:31;;;;;;;0.50;0.50;;;5.50;99.90;;;;;;1898663;75;21106;-86
2022/12/16 00:17:22;;;;;;;0.40;0.40;;;5.50;99.90;;;;;;1913083;75;21192;-86
2022/12/16 00:22:55;;;;;;;0.60;0.40;;;5.40;99.90;;;;;;1947882;72;22175;-87
2022/12/16 00:28:44;;;;;;;0.33;0.30;;;5.40;99.90;;;;;;1945617;72;22151;-86
2022/12/16 00:34:17;;;;;;;0.78;0.40;;;5.30;99.90;;;;;;1929975;72;22213;-86
2022/12/16 00:37:09;;;;;;;0.85;0.40;;;5.40;99.90;;;;;;1888781;75;21122;-86
2022/12/16 00:40:01;;;;;;;0.50;0.40;;;5.30;99.90;;;;;;1883651;75;21087;-85
2022/12/16 00:42:53;;;;;;;0.47;0.30;;;5.20;99.90;;;;;;1885860;75;21107;-86
2022/12/16 00:48:24;;;;;;;0.50;0.42;;;5.20;99.90;;;;;;1934766;72;22154;-86
2022/12/16 00:51:15;;;;;;;0.60;0.40;;;5.20;99.90;;;;;;1883755;74;21245;-86
2022/12/16 00:59:33;;;;;;;0.42;0.40;;;5.30;99.90;;;;;;1924920;72;22201;-87
2022/12/16 01:05:04;;;;;;;0.98;0.47;;;5.30;99.90;;;;;;1941370;72;22226;-86
2022/12/16 01:07:57;;;;;;;0.75;0.40;;;5.30;99.90;;;;;;1909831;75;21114;-86
2022/12/16 01:10:53;;;;;;;0.50;0.30;;;5.20;99.90;;;;;;1915947;75;21122;-86
2022/12/16 01:13:46;;;;;;;0.93;0.47;;;5.30;99.90;;;;;;1907936;75;21099;-86
2022/12/16 01:16:38;;;;;;;0.93;0.50;;;5.20;99.90;;;;;;1916709;75;21138;-86
2022/12/16 01:19:30;;;;;;;0.93;0.50;;;5.20;99.90;;;;;;1905262;75;21083;-86
2022/12/16 01:22:23;;;;;;;1.60;0.70;;;5.20;99.90;;;;;;1915691;75;21342;-86
2022/12/16 01:27:54;;;;;;;0.88;0.40;;;5.20;99.90;;;;;;1953238;72;22248;-87
2022/12/16 01:30:45;;;;;;;0.53;0.33;;;5.20;99.90;;;;;;1908426;75;21621;-87
2022/12/16 01:33:37;;;;;;;1.47;0.40;;;5.10;99.90;;;;;;1908066;75;21135;-88
2022/12/16 01:36:29;;;;;;;0.60;0.30;;;5.20;99.90;;;;;;1901846;75;21131;-86
2022/12/16 01:42:07;;;;;;;0.60;0.50;;;5.10;99.90;;;;;;1944412;72;20171;-86
2022/12/16 01:45:17;;;;;;;0.55;0.40;;;5.20;99.90;;;;;;1884742;75;21217;-86
2022/12/16 01:48:13;;;;;;;0.72;0.45;;;5.10;99.90;;;;;;1872823;75;21141;-85
2022/12/16 01:51:08;;;;;;;0.40;0.40;;;5.10;99.90;;;;;;1893987;75;21091;-86
2022/12/16 01:54:01;;;;;;;0.45;0.40;;;5.10;99.90;;;;;;1870295;75;21083;-86
2022/12/16 01:56:56;;;;;;;0.70;0.40;;;5.00;99.90;;;;;;1894102;75;21149;-85
2022/12/16 01:59:49;;;;;;;0.50;0.30;;;5.00;99.90;;;;;;1889774;75;21200;-85
2022/12/16 02:02:44;;;;;;;1.67;0.50;;;5.00;99.90;;;;;;1875839;75;21091;-85
2022/12/16 02:05:40;;;;;;;0.42;0.30;;;5.00;99.90;;;;;;1881766;75;21079;-85
2022/12/16 02:11:25;;;;;;;0.82;0.70;;;5.00;99.90;;;;;;1925720;72;38304;-86
2022/12/16 02:14:40;;;;;;;0.23;0.20;;;5.00;99.90;;;;;;1915987;75;21098;-86
2022/12/16 02:17:36;;;;;;;0.40;0.20;;;5.10;99.90;;;;;;1914862;75;21131;-86
2022/12/16 02:21:02;;;;;;;0.57;0.40;;;5.10;99.90;;;;;;1909620;73;21132;-86
2022/12/16 02:24:48;;;;;;;0.20;0.20;;;5.10;99.90;;;;;;1913954;75;21068;-86
2022/12/16 02:30:44;;;;;;;0.80;0.40;;;5.00;99.90;;;;;;1947957;72;22214;-86
2022/12/16 02:33:49;;;;;;;0.30;0.30;;;5.00;99.90;;;;;;1910873;75;21094;-86
2022/12/16 02:36:57;;;;;;;0.30;0.30;;;4.90;99.90;;;;;;1900045;75;21126;-86
2022/12/16 02:39:53;;;;;;;0.50;0.20;;;4.80;99.90;;;;;;1893870;75;21208;-85
2022/12/16 02:42:48;;;;;;;0.40;0.30;;;4.80;99.90;;;;;;1892602;75;21124;-86
2022/12/16 02:48:21;;;;;;;0.65;0.40;;;4.80;99.90;;;;;;1934209;72;22245;-86
2022/12/16 02:53:54;;;;;;;0.65;0.40;;;4.80;99.90;;;;;;1940933;72;22215;-86
2022/12/16 02:56:51;;;;;;;0.47;0.25;;;4.90;99.90;;;;;;1884123;75;21116;-85
2022/12/16 03:07:55;;;;;;;1.22;0.40;;;5.00;99.90;;;;;;1937555;72;22548;-85
2022/12/16 03:13:33;;;;;;;0.50;0.30;;;4.90;99.90;;;;;;1939810;72;22271;-86
2022/12/16 03:16:28;;;;;;;0.40;0.30;;;4.90;99.90;;;;;;1891724;75;21107;-86
2022/12/16 03:19:22;;;;;;;0.30;0.20;;;4.80;99.90;;;;;;1869736;75;21114;-86
2022/12/16 03:22:16;;;;;;;0.30;0.20;;;4.90;99.90;;;;;;1875340;75;21118;-86
2022/12/16 03:25:09;;;;;;;0.40;0.20;;;4.90;99.90;;;;;;1872321;75;21153;-86
2022/12/16 03:28:04;;;;;;;0.20;0.20;;;4.90;99.90;;;;;;1893947;75;21122;-86
2022/12/16 03:30:59;;;;;;;0.42;0.30;;;4.80;99.90;;;;;;1874023;75;21114;-86
2022/12/16 03:33:54;;;;;;;0.30;0.23;;;4.80;99.90;;;;;;1882255;75;21173;-85
2022/12/16 03:36:50;;;;;;;0.28;0.20;;;4.70;99.90;;;;;;1894100;75;21067;-86
2022/12/16 03:39:44;;;;;;;0.30;0.30;;;4.70;99.90;;;;;;1882050;75;21055;-85
2022/12/16 03:42:37;;;;;;;1.07;0.30;;;4.70;99.90;;;;;;1891632;75;21483;-86
2022/12/16 03:45:32;;;;;;;0.53;0.30;;;4.70;99.90;;;;;;1871293;75;21083;-86
2022/12/16 03:48:26;;;;;;;0.33;0.30;;;4.70;99.90;;;;;;1888163;75;21127;-85
2022/12/16 03:54:05;;;;;;;3.62;0.42;;;4.70;99.90;;;;;;1949872;72;22154;-86
2022/12/16 03:56:57;;;;;;;0.40;0.30;;;4.70;99.90;;;;;;1914167;74;21211;-86
2022/12/16 04:02:28;;;;;;;0.72;0.37;;;4.60;99.90;;;;;;1943969;72;22182;-86
2022/12/16 04:05:20;;;;;;;0.50;0.33;;;4.60;99.90;;;;;;1875667;75;21160;-86
2022/12/16 04:08:11;;;;;;;0.55;0.35;;;4.60;99.90;;;;;;1890907;75;21139;-86
2022/12/16 04:28:59;;;;;;;1.05;0.40;;;4.60;99.90;;;;;;1939827;72;22207;-87
2022/12/16 04:31:52;;;;;;;0.42;0.30;;;4.60;99.90;;;;;;1905342;75;21124;-86
2022/12/16 04:34:43;;;;;;;0.53;0.30;;;4.60;99.90;;;;;;1906441;75;21094;-86
